Time;durP1;ratioP1;P1;durP2;ratioP2;P2;SDS_P1;SDS_P2;PMS_P1;PMS_P2;Temp;Humidity;BMP_temperature;BMP_pressure;BME280_temperature;BME280_humidity;BME280_pressure;Samples;Min_cycle;Max_cycle;Signal;HPM_P1;HPM_P2
2023/07/26 00:00:00;;;;;;;;;;;;;;;14.30;66.72;100029.08;108787;1259;59933;-84
2023/07/26 00:02:28;;;;;;;;;;;;;;;14.29;66.79;100030.84;108630;1259;124945;-84
2023/07/26 00:04:55;;;;;;;;;;;;;;;14.27;66.93;100026.26;108735;1259;75527;-84
2023/07/26 00:07:22;;;;;;;;;;;;;;;14.26;67.08;100030.67;108613;1260;125452;-83
2023/07/26 00:09:49;;;;;;;;;;;;;;;14.24;67.23;100032.24;108671;1259;72508;-83
2023/07/26 00:12:15;;;;;;;;;;;;;;;14.22;67.29;100025.02;108735;1259;60164;-83
2023/07/26 00:14:42;;;;;;;;;;;;;;;14.20;67.46;100022.20;108624;1259;124907;-84
2023/07/26 00:17:09;;;;;;;;;;;;;;;14.18;67.59;100023.09;108580;1259;74164;-83
2023/07/26 00:19:36;;;;;;;;;;;;;;;14.16;67.67;100025.92;108434;1259;125438;-83
2023/07/26 00:22:03;;;;;;;;;;;;;;;14.14;67.91;100023.27;108553;1260;71228;-83
2023/07/26 00:24:30;;;;;;;;;;;;;;;14.13;67.95;100025.21;108659;1259;60270;-83
2023/07/26 00:26:57;;;;;;;;;;;;;;;14.13;68.16;100024.67;108553;1263;124672;-83
2023/07/26 00:29:23;;;;;;;;;;;;;;;14.14;68.24;100022.56;108578;1259;75522;-83
2023/07/26 00:31:50;;;;;;;;;;;;;;;14.15;68.37;100023.09;108485;1259;125026;-84
2023/07/26 00:34:17;;;;;;;;;;;;;;;14.17;68.61;100022.91;108683;1259;72119;-83
2023/07/26 00:36:44;;;;;;;;;;;;;;;14.19;68.58;100029.98;108626;1259;60629;-83
2023/07/26 00:39:11;;;;;;;;;;;;;;;14.21;68.76;100034.02;108579;1259;126120;-83
2023/07/26 00:41:38;;;;;;;;;;;;;;;14.24;68.96;100033.67;108645;1259;74201;-82
2023/07/26 00:44:05;;;;;;;;;;;;;;;14.27;69.04;100028.55;108501;1264;125336;-83
2023/07/26 00:46:32;;;;;;;;;;;;;;;14.29;69.07;100026.07;108656;1259;71356;-83
2023/07/26 00:48:58;;;;;;;;;;;;;;;14.32;69.17;100033.66;108583;1259;60167;-83
2023/07/26 00:51:25;;;;;;;;;;;;;;;14.34;69.31;100035.94;108500;1263;126829;-83
2023/07/26 00:53:52;;;;;;;;;;;;;;;14.36;69.30;100036.65;108571;1259;74698;-83
2023/07/26 00:56:19;;;;;;;;;;;;;;;14.36;69.44;100032.77;108544;1259;126598;-83
2023/07/26 00:58:47;;;;;;;;;;;;;;;14.38;69.47;100029.58;108609;1263;72758;-83
2023/07/26 01:01:14;;;;;;;;;;;;;;;14.38;69.44;100030.99;108450;1259;125341;-83
2023/07/26 01:03:40;;;;;;;;;;;;;;;14.39;69.59;100029.58;108677;1260;60703;-82
2023/07/26 01:06:10;;;;;;;;;;;;;;;14.38;69.66;100028.35;108673;1260;75808;-83
2023/07/26 01:08:43;;;;;;;;;;;;;;;14.38;69.79;100030.11;108491;1260;125735;-83
2023/07/26 01:11:28;;;;;;;;;;;;;;;14.40;69.79;100030.10;108508;1260;72878;-83
2023/07/26 01:13:57;;;;;;;;;;;;;;;14.40;69.88;100026.58;108460;1260;124944;-83
2023/07/26 01:16:23;;;;;;;;;;;;;;;14.41;69.97;100026.59;108538;1261;60260;-83
2023/07/26 01:18:50;;;;;;;;;;;;;;;14.42;69.96;100028.17;108464;1261;75142;-83
2023/07/26 01:21:17;;;;;;;;;;;;;;;14.43;70.01;100030.11;108366;1260;124988;-83
2023/07/26 01:23:44;;;;;;;;;;;;;;;14.43;70.26;100034.52;108626;1264;73263;-83
2023/07/26 01:26:11;;;;;;;;;;;;;;;14.43;70.18;100036.27;108462;1260;125084;-83
2023/07/26 01:28:38;;;;;;;;;;;;;;;14.43;70.23;100038.22;108614;1264;60639;-83
2023/07/26 01:31:04;;;;;;;;;;;;;;;14.45;70.38;100039.29;108547;1259;76015;-83
2023/07/26 01:33:31;;;;;;;;;;;;;;;14.46;70.45;100041.40;108513;1259;125750;-83
2023/07/26 01:35:58;;;;;;;;;;;;;;;14.47;70.55;100044.40;108613;1264;72725;-83
2023/07/26 01:38:25;;;;;;;;;;;;;;;14.48;70.60;100040.33;108506;1259;127327;-83
2023/07/26 01:40:52;;;;;;;;;;;;;;;14.51;70.58;100038.91;108676;1259;61099;-83
2023/07/26 01:43:19;;;;;;;;;;;;;;;14.52;70.61;100037.14;108553;1264;125399;-84
2023/07/26 01:45:45;;;;;;;;;;;;;;;14.55;70.69;100042.42;108688;1274;66281;-83
2023/07/26 01:48:12;;;;;;;;;;;;;;;14.56;70.66;100042.27;108685;1259;71397;-83
2023/07/26 01:50:39;;;;;;;;;;;;;;;14.58;70.79;100041.56;108549;1259;126884;-83
2023/07/26 01:53:06;;;;;;;;;;;;;;;14.60;70.75;100045.10;108705;1259;60723;-83
2023/07/26 01:55:33;;;;;;;;;;;;;;;14.61;70.75;100048.45;108535;1259;125638;-83
2023/07/26 01:58:00;;;;;;;;;;;;;;;14.63;70.77;100045.45;108555;1260;67498;-83
2023/07/26 02:00:26;;;;;;;;;;;;;;;14.63;70.76;100043.33;108593;1260;74217;-83
2023/07/26 02:02:53;;;;;;;;;;;;;;;14.64;70.75;100045.28;108609;1258;126715;-83
2023/07/26 02:05:20;;;;;;;;;;;;;;;14.66;70.84;100047.02;108571;1259;60728;-83
2023/07/26 02:07:47;;;;;;;;;;;;;;;14.67;70.81;100048.27;108623;1259;125203;-83
2023/07/26 02:10:14;;;;;;;;;;;;;;;14.68;70.82;100041.73;108581;1264;65797;-83
2023/07/26 02:12:41;;;;;;;;;;;;;;;14.68;70.75;100042.08;108737;1257;73974;-83
2023/07/26 02:15:08;;;;;;;;;;;;;;;14.68;70.73;100044.55;108560;1260;125581;-83
2023/07/26 02:17:35;;;;;;;;;;;;;;;14.68;70.80;100045.27;108624;1259;60177;-83
2023/07/26 02:20:04;;;;;;;;;;;;;;;14.66;70.84;100042.96;108676;1257;125011;-83
2023/07/26 02:22:31;;;;;;;;;;;;;;;14.63;70.84;100042.80;108797;1259;65580;-83
2023/07/26 02:24:57;;;;;;;;;;;;;;;14.60;70.86;100046.86;108563;1262;71476;-83
2023/07/26 02:27:25;;;;;;;;;;;;;;;14.56;70.85;100048.98;108555;1258;126376;-83
2023/07/26 02:29:52;;;;;;;;;;;;;;;14.55;70.96;100051.96;108587;1259;60960;-83
2023/07/26 02:32:19;;;;;;;;;;;;;;;14.53;71.02;100051.45;108577;1260;126285;-83
2023/07/26 02:34:45;;;;;;;;;;;;;;;14.52;71.11;100051.98;108800;1259;66758;-83
2023/07/26 02:37:12;;;;;;;;;;;;;;;14.51;71.11;100055.69;108529;1259;125906;-84
2023/07/26 02:39:39;;;;;;;;;;;;;;;14.51;71.15;100056.40;108652;1262;60608;-84
2023/07/26 02:42:06;;;;;;;;;;;;;;;14.51;71.25;100055.86;108661;1257;60324;-83
2023/07/26 02:44:33;;;;;;;;;;;;;;;14.53;71.26;100055.50;108404;1257;125448;-83
2023/07/26 02:46:59;;;;;;;;;;;;;;;14.53;71.42;100056.73;108585;1258;67635;-84
2023/07/26 02:49:26;;;;;;;;;;;;;;;14.53;71.28;100060.80;108476;1257;126326;-83
2023/07/26 02:51:53;;;;;;;;;;;;;;;14.55;71.34;100065.39;108653;1263;59984;-84
2023/07/26 02:54:20;;;;;;;;;;;;;;;14.55;71.27;100073.33;108812;1257;61419;-83
2023/07/26 02:56:47;;;;;;;;;;;;;;;14.55;71.41;100075.10;108664;1258;127880;-83
2023/07/26 02:59:14;;;;;;;;;;;;;;;14.56;71.36;100085.86;108775;1258;65925;-83
2023/07/26 03:01:40;;;;;;;;;;;;;;;14.57;71.43;100085.71;108536;1257;125429;-83
2023/07/26 03:04:07;;;;;;;;;;;;;;;14.59;71.40;100086.42;108675;1257;61121;-83
2023/07/26 03:06:34;;;;;;;;;;;;;;;14.62;71.52;100085.53;108730;1257;60289;-83
2023/07/26 03:09:01;;;;;;;;;;;;;;;14.66;71.50;100079.16;108624;1258;125675;-83
2023/07/26 03:11:28;;;;;;;;;;;;;;;14.68;71.41;100079.16;108614;1257;67488;-83
2023/07/26 03:13:55;;;;;;;;;;;;;;;14.70;71.45;100077.92;108499;1258;125347;-83
2023/07/26 03:16:22;;;;;;;;;;;;;;;14.72;71.54;100075.09;108742;1259;60271;-83
2023/07/26 03:18:49;;;;;;;;;;;;;;;14.76;71.50;100080.02;108632;1260;60152;-83
2023/07/26 03:21:16;;;;;;;;;;;;;;;14.81;71.50;100081.95;108623;1258;125325;-83
2023/07/26 03:23:43;;;;;;;;;;;;;;;14.85;71.55;100085.13;108652;1258;66545;-83
2023/07/26 03:26:10;;;;;;;;;;;;;;;14.91;71.43;100086.16;108414;1262;126874;-83
2023/07/26 03:28:37;;;;;;;;;;;;;;;14.98;71.38;100087.17;108618;1258;60256;-83
2023/07/26 03:31:03;;;;;;;;;;;;;;;15.05;71.34;100086.98;108538;1264;60055;-83
2023/07/26 03:33:30;;;;;;;;;;;;;;;15.15;71.32;100091.90;108459;1259;126916;-83
2023/07/26 03:35:57;;;;;;;;;;;;;;;15.26;71.30;100089.73;108709;1257;65539;-83
2023/07/26 03:38:24;;;;;;;;;;;;;;;15.38;71.16;100096.91;108485;1258;125087;-83
2023/07/26 03:40:51;;;;;;;;;;;;;;;15.52;71.15;100095.77;108718;1257;60553;-83
2023/07/26 03:43:18;;;;;;;;;;;;;;;15.70;70.97;100100.45;108748;1258;124632;-83
2023/07/26 03:45:44;;;;;;;;;;;;;;;15.94;71.03;100104.55;108816;1257;73213;-83
2023/07/26 03:48:11;;;;;;;;;;;;;;;16.29;70.95;100102.33;108602;1258;67208;-83
2023/07/26 03:50:38;;;;;;;;;;;;;;;16.73;70.63;100107.59;108574;1259;125492;-84
2023/07/26 03:53:05;;;;;;;;;;;;;;;17.04;69.88;100109.75;108709;1259;60200;-83
2023/07/26 03:55:32;;;;;;;;;;;;;;;17.24;69.30;100108.61;108614;1260;125499;-84
2023/07/26 03:57:59;;;;;;;;;;;;;;;17.40;68.73;100112.66;108586;1264;74515;-83
2023/07/26 04:00:26;;;;;;;;;;;;;;;17.43;68.12;100112.81;108503;1259;67805;-84
2023/07/26 04:02:53;;;;;;;;;;;;;;;17.38;67.69;100115.17;108436;1257;125967;-83
2023/07/26 04:05:20;;;;;;;;;;;;;;;17.28;67.48;100118.52;108680;1257;60170;-83
2023/07/26 04:07:47;;;;;;;;;;;;;;;17.23;67.49;100124.23;108365;1259;127263;-84
2023/07/26 04:10:13;;;;;;;;;;;;;;;17.22;67.32;100123.52;108617;1264;75816;-83
2023/07/26 04:12:40;;;;;;;;;;;;;;;17.22;67.24;100123.17;108636;1257;67015;-83
2023/07/26 04:15:07;;;;;;;;;;;;;;;17.25;67.24;100125.45;108564;1262;126854;-83
2023/07/26 04:17:34;;;;;;;;;;;;;;;17.30;67.10;100124.67;108689;1258;60031;-83
2023/07/26 04:20:01;;;;;;;;;;;;;;;17.40;67.15;100129.88;108506;1259;125716;-83
2023/07/26 04:22:28;;;;;;;;;;;;;;;17.58;67.19;100132.27;108671;1264;76886;-83
2023/07/26 04:24:55;;;;;;;;;;;;;;;17.88;67.01;100138.28;108855;1258;67000;-83
2023/07/26 04:27:21;;;;;;;;;;;;;;;18.34;66.95;100135.09;108671;1262;124838;-84
2023/07/26 04:29:48;;;;;;;;;;;;;;;18.97;66.74;100136.29;108806;1257;60187;-83
2023/07/26 04:32:15;;;;;;;;;;;;;;;19.53;65.58;100133.36;108650;1259;124561;-83
2023/07/26 04:34:42;;;;;;;;;;;;;;;19.78;64.61;100135.34;108672;1259;75550;-83
2023/07/26 04:37:09;;;;;;;;;;;;;;;20.02;64.17;100139.96;108779;1259;67514;-84
2023/07/26 04:39:36;;;;;;;;;;;;;;;20.26;63.57;100137.41;108742;1259;72577;-86
2023/07/26 04:42:03;;;;;;;;;;;;;;;20.45;62.88;100137.66;108573;1258;60957;-86
2023/07/26 04:44:30;;;;;;;;;;;;;;;20.59;62.40;100138.21;108609;1258;124579;-86
2023/07/26 04:46:57;;;;;;;;;;;;;;;20.95;62.59;100139.58;108560;1260;75378;-87
2023/07/26 04:49:24;;;;;;;;;;;;;;;21.82;62.39;100143.49;108601;1259;126111;-87
2023/07/26 04:51:51;;;;;;;;;;;;;;;22.97;61.65;100141.83;108667;1260;73832;-86
2023/07/26 04:54:17;;;;;;;;;;;;;;;23.68;60.12;100143.71;108664;1258;60263;-87
2023/07/26 04:56:44;;;;;;;;;;;;;;;24.21;58.83;100142.48;108681;1259;124884;-87
2023/07/26 04:59:11;;;;;;;;;;;;;;;24.86;57.69;100150.20;108642;1260;74953;-87
2023/07/26 05:01:38;;;;;;;;;;;;;;;24.84;55.74;100152.06;108679;1258;125224;-87
2023/07/26 05:04:05;;;;;;;;;;;;;;;24.43;54.80;100153.06;108683;1259;71399;-87
2023/07/26 05:06:32;;;;;;;;;;;;;;;23.86;54.30;100154.47;108648;1259;60406;-87
2023/07/26 05:08:59;;;;;;;;;;;;;;;23.32;54.59;100154.54;108618;1259;125131;-87
2023/07/26 05:11:26;;;;;;;;;;;;;;;22.97;54.72;100154.89;108711;1259;75107;-87
2023/07/26 05:13:53;;;;;;;;;;;;;;;22.80;54.99;100156.75;108604;1259;125184;-87
2023/07/26 05:16:20;;;;;;;;;;;;;;;22.73;54.84;100154.84;108673;1260;70591;-87
2023/07/26 05:18:47;;;;;;;;;;;;;;;22.76;55.06;100157.77;108536;1259;60192;-87
2023/07/26 05:21:14;;;;;;;;;;;;;;;23.06;54.79;100154.59;108524;1259;125495;-87
2023/07/26 05:23:41;;;;;;;;;;;;;;;23.17;54.44;100153.65;108698;1259;75173;-87
2023/07/26 05:26:07;;;;;;;;;;;;;;;23.25;54.17;100156.95;108621;1259;125118;-87
2023/07/26 05:28:34;;;;;;;;;;;;;;;23.20;53.68;100157.48;108725;1259;71980;-87
2023/07/26 05:31:02;;;;;;;;;;;;;;;23.15;53.58;100158.59;108753;1262;59958;-87
2023/07/26 05:33:28;;;;;;;;;;;;;;;23.10;53.18;100161.61;108682;1259;124685;-86
2023/07/26 05:35:55;;;;;;;;;;;;;;;22.76;52.80;100169.04;108703;1259;75339;-86
2023/07/26 05:38:22;;;;;;;;;;;;;;;22.34;52.80;100173.85;108552;1259;124932;-87
2023/07/26 05:40:49;;;;;;;;;;;;;;;21.97;53.15;100176.63;108520;1259;72937;-88
2023/07/26 05:43:17;;;;;;;;;;;;;;;21.72;53.64;100182.55;108421;1259;126388;-88
2023/07/26 05:45:44;;;;;;;;;;;;;;;21.52;53.73;100185.82;108602;1259;60409;-87
2023/07/26 05:48:11;;;;;;;;;;;;;;;21.34;54.04;100186.65;108612;1259;74857;-87
2023/07/26 05:50:38;;;;;;;;;;;;;;;21.28;54.19;100190.95;108612;1260;125058;-87
2023/07/26 05:53:04;;;;;;;;;;;;;;;21.24;54.28;100192.84;108693;1259;73147;-87
2023/07/26 05:55:31;;;;;;;;;;;;;;;21.34;54.50;100194.70;108589;1259;125212;-87
2023/07/26 05:57:58;;;;;;;;;;;;;;;21.39;54.26;100195.63;108711;1260;59980;-88
2023/07/26 06:00:25;;;;;;;;;;;;;;;21.40;54.22;100192.74;108658;1259;76076;-87
2023/07/26 06:02:52;;;;;;;;;;;;;;;21.51;54.61;100192.45;108594;1259;124577;-88
2023/07/26 06:05:19;;;;;;;;;;;;;;;21.68;54.30;100196.61;108707;1264;71131;-87
2023/07/26 06:07:48;;;;;;;;;;;;;;;21.70;53.80;100196.56;108564;1259;125759;-87
2023/07/26 06:10:15;;;;;;;;;;;;;;;21.60;53.58;100196.48;108749;1259;60642;-87
2023/07/26 06:12:41;;;;;;;;;;;;;;;21.60;53.86;100192.92;108734;1260;75596;-87
2023/07/26 06:15:08;;;;;;;;;;;;;;;21.66;53.82;100197.55;108654;1259;124995;-86
2023/07/26 06:17:35;;;;;;;;;;;;;;;21.64;53.51;100200.11;108703;1259;73814;-87
2023/07/26 06:20:03;;;;;;;;;;;;;;;21.43;53.25;100208.19;108581;1259;124897;-86
2023/07/26 06:22:30;;;;;;;;;;;;;;;21.17;53.21;100209.24;108620;1259;61160;-87
2023/07/26 06:24:57;;;;;;;;;;;;;;;20.95;53.39;100209.67;108542;1259;75631;-86
2023/07/26 06:27:27;;;;;;;;;;;;;;;20.77;53.51;100209.08;108636;1259;124937;-87
2023/07/26 06:29:54;;;;;;;;;;;;;;;20.64;53.58;100214.94;108659;1259;71858;-87
2023/07/26 06:32:21;;;;;;;;;;;;;;;20.58;53.88;100220.04;108444;1259;125059;-86
2023/07/26 06:34:48;;;;;;;;;;;;;;;20.49;53.92;100218.64;108515;1259;60141;-87
2023/07/26 06:37:14;;;;;;;;;;;;;;;20.40;54.24;100221.71;108719;1259;74146;-87
2023/07/26 06:39:41;;;;;;;;;;;;;;;20.37;54.46;100220.89;108712;1259;68273;-87
2023/07/26 06:42:09;;;;;;;;;;;;;;;20.42;54.84;100218.48;108737;1259;71052;-87
2023/07/26 06:44:38;;;;;;;;;;;;;;;20.43;54.96;100218.43;108618;1259;125574;-87
2023/07/26 06:47:06;;;;;;;;;;;;;;;20.44;55.13;100227.34;108626;1265;60197;-87
2023/07/26 06:49:33;;;;;;;;;;;;;;;20.47;55.10;100226.71;108535;1259;124628;-87
2023/07/26 06:52:00;;;;;;;;;;;;;;;20.45;55.13;100228.02;108609;1259;66077;-87
2023/07/26 06:54:27;;;;;;;;;;;;;;;20.50;55.15;100229.84;108757;1259;72711;-87
2023/07/26 06:56:54;;;;;;;;;;;;;;;20.63;55.31;100231.33;108572;1259;126599;-86
2023/07/26 06:59:21;;;;;;;;;;;;;;;20.74;55.08;100232.87;108653;1260;59902;-87
2023/07/26 07:01:48;;;;;;;;;;;;;;;20.82;54.96;100229.83;108616;1259;126567;-87
2023/07/26 07:04:15;;;;;;;;;;;;;;;20.94;55.03;100234.66;108758;1259;66670;-87
2023/07/26 07:06:43;;;;;;;;;;;;;;;21.09;54.97;100239.80;108739;1259;71422;-87
2023/07/26 07:09:10;;;;;;;;;;;;;;;21.18;54.80;100243.85;108539;1259;126019;-87
2023/07/26 07:11:36;;;;;;;;;;;;;;;21.27;54.86;100244.14;108763;1257;60147;-87
2023/07/26 07:14:03;;;;;;;;;;;;;;;21.37;54.82;100245.30;108533;1258;124906;-87
2023/07/26 07:16:30;;;;;;;;;;;;;;;21.43;54.64;100247.81;108786;1261;65760;-87
2023/07/26 07:18:57;;;;;;;;;;;;;;;21.56;54.95;100251.21;108642;1260;72130;-87
2023/07/26 07:21:24;;;;;;;;;;;;;;;21.79;54.71;100249.14;108626;1259;125030;-87
2023/07/26 07:23:51;;;;;;;;;;;;;;;21.91;54.30;100248.41;108584;1259;60268;-87
2023/07/26 07:26:18;;;;;;;;;;;;;;;22.06;54.50;100246.71;108550;1260;125127;-88
2023/07/26 07:28:45;;;;;;;;;;;;;;;22.38;54.40;100255.42;108679;1259;67134;-87
2023/07/26 07:31:12;;;;;;;;;;;;;;;22.64;53.98;100253.70;108819;1258;71442;-87
2023/07/26 07:33:39;;;;;;;;;;;;;;;22.86;53.53;100259.41;108707;1261;124890;-88
2023/07/26 07:36:06;;;;;;;;;;;;;;;22.97;53.22;100258.52;108707;1260;60010;-87
2023/07/26 07:38:33;;;;;;;;;;;;;;;23.02;52.58;100264.23;108494;1259;123930;-87
2023/07/26 07:41:00;;;;;;;;;;;;;;;23.04;52.68;100263.63;108711;1259;66877;-88
2023/07/26 07:43:27;;;;;;;;;;;;;;;23.16;52.63;100263.42;108516;1258;126047;-87
2023/07/26 07:45:54;;;;;;;;;;;;;;;23.15;51.72;100260.27;108667;1259;60016;-87
2023/07/26 07:48:21;;;;;;;;;;;;;;;23.03;51.55;100260.83;108677;1258;60903;-88
2023/07/26 07:50:54;;;;;;;;;;;;;;;23.03;51.40;100262.95;108489;1257;125863;-88
2023/07/26 07:53:22;;;;;;;;;;;;;;;23.03;51.39;100264.39;108714;1258;67763;-88
2023/07/26 07:55:49;;;;;;;;;;;;;;;23.01;51.47;100265.15;108586;1259;125297;-88
2023/07/26 07:58:16;;;;;;;;;;;;;;;23.19;51.38;100269.40;108774;1260;59918;-87
2023/07/26 08:00:43;;;;;;;;;;;;;;;23.31;51.04;100271.13;108657;1274;60130;-88
2023/07/26 08:03:10;;;;;;;;;;;;;;;23.45;50.77;100268.66;108606;1260;125486;-88
2023/07/26 08:05:37;;;;;;;;;;;;;;;23.47;50.34;100268.92;108824;1260;65818;-88
2023/07/26 08:08:06;;;;;;;;;;;;;;;23.46;50.26;100270.95;108548;1263;125463;-88
2023/07/26 08:10:33;;;;;;;;;;;;;;;23.44;49.88;100269.59;108826;1260;59988;-88
2023/07/26 08:12:59;;;;;;;;;;;;;;;23.34;49.92;100273.38;108686;1258;60318;-88
2023/07/26 08:15:32;;;;;;;;;;;;;;;23.21;49.77;100274.34;108637;1262;125856;-88
2023/07/26 08:17:59;;;;;;;;;;;;;;;22.87;49.13;100276.55;108685;1259;67124;-88
2023/07/26 08:20:26;;;;;;;;;;;;;;;22.54;49.48;100287.45;108569;1274;125084;-88
2023/07/26 08:22:53;;;;;;;;;;;;;;;22.33;49.59;100281.69;108717;1258;60055;-88
2023/07/26 08:25:20;;;;;;;;;;;;;;;22.31;49.81;100282.09;108637;1258;125860;-87
2023/07/26 08:27:46;;;;;;;;;;;;;;;22.30;49.71;100282.85;108701;1257;74021;-88
2023/07/26 08:30:13;;;;;;;;;;;;;;;22.30;49.49;100285.16;108860;1258;66860;-88
2023/07/26 08:32:40;;;;;;;;;;;;;;;22.27;49.40;100282.58;108570;1259;125174;-88
2023/07/26 08:35:07;;;;;;;;;;;;;;;22.30;49.59;100280.16;108670;1259;60301;-88
2023/07/26 08:37:34;;;;;;;;;;;;;;;22.30;49.60;100278.17;108588;1262;125151;-88
2023/07/26 08:40:02;;;;;;;;;;;;;;;22.22;49.52;100282.34;108656;1264;74911;-88
2023/07/26 08:42:29;;;;;;;;;;;;;;;22.08;49.81;100284.17;108617;1264;65966;-88
2023/07/26 08:44:56;;;;;;;;;;;;;;;22.11;49.88;100285.70;108614;1260;124443;-87
2023/07/26 08:47:23;;;;;;;;;;;;;;;22.07;49.83;100284.40;108595;1265;60443;-88
2023/07/26 08:49:50;;;;;;;;;;;;;;;21.90;49.97;100279.17;108700;1260;126707;-88
2023/07/26 08:52:17;;;;;;;;;;;;;;;21.93;50.47;100278.38;108861;1262;72913;-88
2023/07/26 08:54:44;;;;;;;;;;;;;;;22.07;50.64;100281.72;108631;1265;67568;-88
2023/07/26 08:57:11;;;;;;;;;;;;;;;22.29;50.63;100283.39;108580;1259;124656;-87
2023/07/26 08:59:38;;;;;;;;;;;;;;;22.53;50.26;100284.98;108639;1260;60167;-87
2023/07/26 09:02:05;;;;;;;;;;;;;;;22.76;50.00;100283.88;108498;1260;126477;-86
2023/07/26 09:04:32;;;;;;;;;;;;;;;23.01;50.26;100281.45;108682;1259;75869;-87
2023/07/26 09:07:00;;;;;;;;;;;;;;;23.26;49.98;100281.14;108780;1262;66926;-87
2023/07/26 09:09:27;;;;;;;;;;;;;;;23.37;49.12;100289.02;108618;1258;123637;-87
2023/07/26 09:11:54;;;;;;;;;;;;;;;23.35;48.39;100282.81;108798;1262;60273;-87
2023/07/26 09:14:26;;;;;;;;;;;;;;;23.44;48.56;100280.89;108591;1265;126636;-88
2023/07/26 09:16:56;;;;;;;;;;;;;;;23.58;47.98;100280.55;108715;1260;73975;-88
2023/07/26 09:19:32;;;;;;;;;;;;;;;23.60;47.52;100287.27;108632;1259;125143;-88
2023/07/26 09:22:00;;;;;;;;;;;;;;;23.52;47.40;100291.16;108741;1262;73000;-88
2023/07/26 09:24:33;;;;;;;;;;;;;;;23.33;46.99;100288.25;108638;1264;60278;-88
2023/07/26 09:27:04;;;;;;;;;;;;;;;23.13;46.79;100288.06;108574;1260;125434;-88
2023/07/26 09:29:31;;;;;;;;;;;;;;;23.10;46.62;100293.18;108531;1265;75318;-89
2023/07/26 09:31:58;;;;;;;;;;;;;;;23.10;46.16;100294.42;108432;1259;124734;-89
2023/07/26 09:34:24;;;;;;;;;;;;;;;23.10;46.13;100287.44;108688;1260;72627;-89
2023/07/26 09:36:52;;;;;;;;;;;;;;;23.15;46.17;100288.17;108659;1265;60149;-89
2023/07/26 09:39:19;;;;;;;;;;;;;;;23.07;46.25;100283.94;108486;1265;124910;-88
2023/07/26 09:41:47;;;;;;;;;;;;;;;23.14;46.43;100279.79;108768;1257;75470;-89
2023/07/26 09:44:18;;;;;;;;;;;;;;;23.18;46.14;100280.17;108571;1264;125020;-89
2023/07/26 09:46:55;;;;;;;;;;;;;;;23.20;46.06;100283.35;108687;1263;72238;-89
2023/07/26 09:49:23;;;;;;;;;;;;;;;23.17;45.65;100286.48;108567;1264;125264;-89
2023/07/26 09:51:53;;;;;;;;;;;;;;;23.20;44.77;100289.41;108762;1260;60617;-88
2023/07/26 09:54:21;;;;;;;;;;;;;;;23.23;44.64;100295.39;108717;1257;75350;-88
2023/07/26 09:56:48;;;;;;;;;;;;;;;23.18;44.43;100313.66;108554;1266;125106;-87
2023/07/26 09:59:15;;;;;;;;;;;;;;;22.83;45.70;100329.82;108606;1260;71215;-87
2023/07/26 10:01:44;;;;;;;;;;;;;;;22.06;47.15;100342.52;108548;1257;124978;-87
2023/07/26 10:04:12;;;;;;;;;;;;;;;21.09;48.26;100355.92;108722;1259;60550;-88
2023/07/26 10:06:42;;;;;;;;;;;;;;;20.17;49.56;100367.63;108709;1263;76014;-87
2023/07/26 10:09:13;;;;;;;;;;;;;;;19.45;50.40;100382.83;108687;1260;126155;-88
2023/07/26 10:11:41;;;;;;;;;;;;;;;19.08;52.04;100397.86;108784;1257;73189;-87
2023/07/26 10:14:09;;;;;;;;;;;;;;;18.91;52.69;100397.39;108571;1257;124403;-88
2023/07/26 10:16:36;;;;;;;;;;;;;;;18.84;53.50;100392.70;108735;1258;60258;-86
2023/07/26 10:19:03;;;;;;;;;;;;;;;18.84;54.18;100392.17;108725;1262;76430;-90
2023/07/26 10:21:30;;;;;;;;;;;;;;;18.87;54.54;100388.93;108659;1263;124735;-87
2023/07/26 10:23:58;;;;;;;;;;;;;;;18.88;54.82;100385.89;108674;1261;72769;-88
2023/07/26 10:26:26;;;;;;;;;;;;;;;18.92;54.92;100386.38;108590;1261;125460;-88
2023/07/26 10:28:58;;;;;;;;;;;;;;;18.96;55.13;100389.52;108682;1263;61003;-88
2023/07/26 10:31:26;;;;;;;;;;;;;;;19.04;55.32;100388.86;108666;1260;125575;-87
2023/07/26 10:33:54;;;;;;;;;;;;;;;19.21;55.71;100388.41;108672;1265;66498;-86
2023/07/26 10:36:21;;;;;;;;;;;;;;;19.40;55.78;100389.34;108697;1272;71305;-86
2023/07/26 10:38:48;;;;;;;;;;;;;;;19.56;55.57;100386.55;108691;1260;124410;-87
2023/07/26 10:41:22;;;;;;;;;;;;;;;19.63;55.64;100387.86;108741;1264;60064;-86
2023/07/26 10:43:49;;;;;;;;;;;;;;;19.84;55.66;100384.48;108566;1259;124664;-87
2023/07/26 10:46:18;;;;;;;;;;;;;;;20.15;55.43;100377.82;108710;1260;65639;-87
2023/07/26 10:48:45;;;;;;;;;;;;;;;20.41;54.50;100372.28;108659;1257;72836;-87
2023/07/26 10:51:27;;;;;;;;;;;;;;;20.64;54.40;100374.83;108469;1260;249744;-85
2023/07/26 10:53:54;;;;;;;;;;;;;;;20.99;54.28;100379.56;108747;1259;60133;-87
2023/07/26 10:56:24;;;;;;;;;;;;;;;21.17;53.58;100380.89;108607;1272;125211;-87
2023/07/26 10:58:55;;;;;;;;;;;;;;;21.28;53.32;100384.40;108708;1261;67348;-86
2023/07/26 11:01:38;;;;;;;;;;;;;;;21.44;53.69;100390.23;108598;1257;125141;-86
2023/07/26 11:04:08;;;;;;;;;;;;;;;21.66;53.26;100393.80;108745;1264;60200;-87
2023/07/26 11:06:54;;;;;;;;;;;;;;;21.59;52.16;100390.41;108816;1263;60162;-87
2023/07/26 11:09:28;;;;;;;;;;;;;;;21.55;52.16;100390.32;108615;1258;125978;-87
2023/07/26 11:11:59;;;;;;;;;;;;;;;21.70;52.25;100389.23;108620;1263;65767;-87
2023/07/26 11:14:26;;;;;;;;;;;;;;;21.96;52.26;100391.39;108454;1265;125271;-88
2023/07/26 11:16:53;;;;;;;;;;;;;;;22.21;52.22;100393.71;108641;1264;60045;-89
2023/07/26 11:19:20;;;;;;;;;;;;;;;22.28;51.90;100396.94;108542;1258;126539;-88
2023/07/26 11:21:48;;;;;;;;;;;;;;;22.23;51.44;100392.94;108624;1265;75506;-88
2023/07/26 11:24:15;;;;;;;;;;;;;;;22.21;51.43;100388.91;108715;1261;66817;-87
2023/07/26 11:26:48;;;;;;;;;;;;;;;22.26;51.25;100385.55;108566;1264;124367;-87
2023/07/26 11:29:14;;;;;;;;;;;;;;;22.31;51.31;100385.05;108639;1260;60282;-87
2023/07/26 11:31:41;;;;;;;;;;;;;;;22.43;51.05;100387.75;108465;1260;126233;-87
2023/07/26 11:34:15;;;;;;;;;;;;;;;22.62;51.14;100391.45;108669;1260;74751;-87
2023/07/26 11:36:42;;;;;;;;;;;;;;;22.86;50.81;100394.64;108713;1260;65593;-87
2023/07/26 11:39:22;;;;;;;;;;;;;;;23.03;50.60;100393.75;108606;1257;125561;-87
2023/07/26 11:41:49;;;;;;;;;;;;;;;23.21;50.41;100398.05;108822;1260;60906;-88
2023/07/26 11:44:16;;;;;;;;;;;;;;;23.31;49.94;100394.11;108632;1260;124688;-88
2023/07/26 11:46:43;;;;;;;;;;;;;;;23.43;49.78;100390.50;108869;1257;75420;-88
2023/07/26 11:49:11;;;;;;;;;;;;;;;23.62;49.94;100390.37;108769;1257;67060;-88
2023/07/26 11:51:38;;;;;;;;;;;;;;;23.82;49.63;100390.80;108550;1261;125822;-87
2023/07/26 11:54:10;;;;;;;;;;;;;;;23.72;48.68;100396.67;108745;1260;60669;-87
2023/07/26 11:56:37;;;;;;;;;;;;;;;23.27;48.80;100416.30;108658;1260;124493;-86
2023/07/26 11:59:04;;;;;;;;;;;;;;;22.87;49.10;100431.13;108667;1257;76036;-87
2023/07/26 12:01:34;;;;;;;;;;;;;;;22.33;48.98;100436.11;108641;1261;124631;-87
2023/07/26 12:04:01;;;;;;;;;;;;;;;21.72;49.22;100438.29;108814;1259;72184;-87
2023/07/26 12:06:31;;;;;;;;;;;;;;;21.03;49.28;100440.28;108709;1257;60440;-87
2023/07/26 12:09:11;;;;;;;;;;;;;;;20.42;49.53;100442.29;108670;1257;124630;-87
2023/07/26 12:11:40;;;;;;;;;;;;;;;19.90;50.23;100437.42;108680;1258;74241;-86
2023/07/26 12:14:07;;;;;;;;;;;;;;;19.60;51.23;100437.74;108511;1259;126696;-87
2023/07/26 12:16:34;;;;;;;;;;;;;;;19.50;51.70;100435.61;108568;1260;72080;-87
2023/07/26 12:19:01;;;;;;;;;;;;;;;19.41;51.94;100427.20;108784;1257;60727;-86
2023/07/26 12:21:29;;;;;;;;;;;;;;;19.36;52.06;100426.95;108730;1261;124920;-87
2023/07/26 12:23:57;;;;;;;;;;;;;;;19.29;52.30;100429.55;108748;1257;74202;-87